Dallas Love Field
KDAL : rendu visible

Aérodrome :











RETROUVEZ-NOUS SUR...

 
LOGIN :

S'inscrire | Disclaimer

   EN    FR    IT 

 









Légende :    VFR   VFR Marginal   IFR   IFR Intensif   IFR Très Intensif
Visi : 
Plafond : 
>= 8 km
>= 3000ft
5 à 8 km
1000 à 3000 ft
1500m à 5 km
500 à 1000 ft
800 à 1500m
200 à 500 ft
< 800m
< 200 ft
Symboles :   Orages  Brouillard  Fortes neiges  Fortes précipitations  Vent > 20 kt






- Altitude de l'aérodrome : 487 ft
- Code IATA : DAL


KDAL - Dallas Love Field

DERNIER METAR :
  • 260416Z 17008G17KT 10SM SCT025 BKN031 BKN070 15/10 A3000 RMK AO2 T01500100 $

METARs EXPIRÉS :
  • 260353Z 16010KT 10SM BKN025 BKN031 OVC042 16/10 A3000 RMK AO2 SLP155 BKN025 V SCT T01560100 $
  • 260314Z 18010KT 10SM BKN027 OVC035 16/08 A3000 RMK AO2 T01560083 $
  • 260253Z 16008KT 10SM SCT030 BKN035 OVC045 16/07 A3000 RMK AO2 SLP156 SCT030 V BKN T01610072 51010 $
  • 260153Z 16007KT 10SM BKN035 OVC043 16/07 A2999 RMK AO2 SLP151 T01610067 $

TAF KDAL
Valide du 26 à 03h jusqu'au 27 à 00h UTC


260308Z 2603/2624 17010KT P6SM BKN035
FM260400 16012KT P6SM VCSH BKN030
FM260600 18010KT P6SM VCSH OVC020
FM260900 20009KT P6SM OVC018
FM261200 30009KT P6SM SCT008 OVC015
TEMPO 2613/2616 4SM -DZ BR BKN008
FM261800 34010KT P6SM SCT300
FM262300 33004KT P6SM FEW300



MET'MAP, la Météo Aéronautique d'un coup d'oeil ! - Copyright ORBIFLY Décembre 2007 - Disclaimer

ORBIFLY MET'MAP TEAM :

Programmation & Développement : Alexandra Zaïnal
Sur une idée originale de : Baudouin d'Aumeries
Assistance à la programmation : Marc-Olivier Méhu
Soutien technique & logistique : Manuel Goepfert

Contact : metmap@orbifly.com




SOURCES & CREDITS :

   NOAA       Earth
Advisory